createdAt,value
2022-10-16T00:00:46.934Z,17.20
2022-10-16T00:05:49.699Z,17.18
2022-10-16T00:10:51.560Z,17.04
2022-10-16T00:15:57.230Z,16.87
2022-10-16T00:21:07.462Z,16.76
2022-10-16T00:26:12.441Z,16.66
2022-10-16T00:31:15.068Z,16.59
2022-10-16T00:36:19.768Z,16.54
2022-10-16T00:41:24.012Z,16.52
2022-10-16T00:46:33.371Z,16.49
2022-10-16T00:51:36.612Z,16.32
2022-10-16T00:56:38.706Z,16.32
2022-10-16T01:01:40.833Z,16.39
2022-10-16T01:07:01.279Z,16.32
2022-10-16T01:12:15.160Z,16.30
2022-10-16T01:17:21.005Z,16.23
2022-10-16T01:22:27.266Z,16.11
2022-10-16T01:27:30.487Z,16.03
2022-10-16T01:32:47.983Z,16.05
2022-10-16T01:37:51.572Z,15.99
2022-10-16T01:43:09.802Z,15.98
2022-10-16T01:48:13.863Z,15.81
2022-10-16T01:53:16.994Z,15.81
2022-10-16T01:58:19.093Z,15.80
2022-10-16T02:03:21.988Z,15.67
2022-10-16T02:08:26.065Z,15.62
2022-10-16T02:13:41.976Z,15.62
2022-10-16T02:18:44.532Z,15.35
2022-10-16T02:23:55.630Z,15.33
2022-10-16T02:29:02.837Z,15.21
2022-10-16T02:34:06.253Z,15.16
2022-10-16T02:39:08.318Z,15.01
2022-10-16T02:44:10.157Z,14.87
2022-10-16T02:49:12.118Z,14.85
2022-10-16T02:54:14.296Z,14.96
2022-10-16T02:59:16.519Z,15.06
2022-10-16T03:04:18.685Z,14.74
2022-10-16T03:09:20.522Z,14.77
2022-10-16T03:14:22.749Z,14.78
2022-10-16T03:19:24.750Z,14.77
2022-10-16T03:24:26.729Z,14.78
2022-10-16T03:29:30.488Z,14.82
2022-10-16T03:34:32.554Z,14.74
2022-10-16T03:39:34.539Z,14.60
2022-10-16T03:44:36.480Z,14.47
2022-10-16T03:49:38.323Z,14.42
2022-10-16T03:54:40.187Z,14.21
2022-10-16T03:59:42.082Z,14.30
2022-10-16T04:04:44.002Z,14.12
2022-10-16T04:09:45.939Z,14.08
2022-10-16T04:14:47.792Z,14.22
2022-10-16T04:19:49.659Z,14.10
2022-10-16T04:24:51.702Z,13.94
2022-10-16T04:29:53.740Z,13.91
2022-10-16T04:34:55.677Z,13.87
2022-10-16T04:39:57.830Z,13.81
2022-10-16T04:44:59.826Z,13.82
2022-10-16T04:50:03.532Z,13.94
2022-10-16T04:55:06.374Z,13.73
2022-10-16T05:00:09.332Z,13.84
2022-10-16T05:05:13.006Z,13.80
2022-10-16T05:10:14.954Z,13.67
2022-10-16T05:15:16.916Z,13.66
2022-10-16T05:20:18.923Z,13.84
2022-10-16T05:25:21.025Z,13.84
2022-10-16T05:30:23.257Z,13.77
2022-10-16T05:35:25.215Z,13.74
2022-10-16T05:40:27.192Z,13.62
2022-10-16T05:45:28.959Z,13.41
2022-10-16T05:50:30.955Z,13.46
2022-10-16T05:55:32.829Z,13.49
2022-10-16T06:00:34.739Z,13.49
2022-10-16T06:05:36.669Z,13.45
2022-10-16T06:10:38.663Z,13.35
2022-10-16T06:15:42.956Z,13.43
2022-10-16T06:20:44.719Z,13.43
2022-10-16T06:25:46.631Z,13.32
2022-10-16T06:30:48.726Z,13.27
2022-10-16T06:35:50.904Z,13.34
2022-10-16T06:40:54.957Z,13.34
2022-10-16T06:45:57.842Z,13.11
2022-10-16T06:51:17.785Z,13.19
2022-10-16T06:56:25.639Z,13.33
2022-10-16T07:01:28.011Z,13.36
2022-10-16T07:06:36.664Z,13.36
2022-10-16T07:11:40.383Z,13.34
2022-10-16T07:16:42.296Z,13.47
2022-10-16T07:21:44.890Z,13.42
2022-10-16T07:26:47.693Z,13.47
2022-10-16T07:31:50.468Z,13.42
2022-10-16T07:36:52.551Z,13.62
2022-10-16T07:41:54.681Z,13.62
2022-10-16T07:46:56.659Z,13.83
2022-10-16T07:51:58.715Z,13.88
2022-10-16T07:57:00.627Z,14.01
2022-10-16T08:02:02.569Z,14.17
2022-10-16T08:07:04.621Z,14.33
2022-10-16T08:12:06.565Z,14.52
2022-10-16T08:17:08.393Z,14.79
2022-10-16T08:22:10.684Z,14.93
2022-10-16T08:27:12.802Z,15.26
2022-10-16T08:32:15.051Z,15.65
2022-10-16T08:37:16.993Z,15.91
2022-10-16T08:42:53.714Z,16.37
2022-10-16T08:47:58.356Z,16.83
2022-10-16T08:53:00.288Z,17.11
2022-10-16T08:58:02.315Z,17.95
2022-10-16T09:03:25.388Z,19.19
2022-10-16T09:08:35.229Z,19.97
2022-10-16T09:13:55.534Z,21.09
2022-10-16T09:19:09.317Z,21.81
2022-10-16T09:24:20.351Z,21.97
2022-10-16T09:29:22.899Z,22.49
2022-10-16T09:34:33.783Z,23.11
2022-10-16T09:39:55.094Z,23.52
2022-10-16T09:44:57.780Z,23.45
2022-10-16T09:50:07.238Z,23.30
2022-10-16T09:55:17.943Z,23.33
2022-10-16T10:00:20.288Z,23.50
2022-10-16T10:05:27.419Z,24.13
2022-10-16T10:10:31.708Z,24.13
2022-10-16T10:15:36.144Z,24.44
2022-10-16T10:20:39.833Z,24.69
2022-10-16T10:25:41.866Z,24.74
2022-10-16T10:31:05.746Z,25.08
2022-10-16T10:36:14.503Z,24.88
2022-10-16T10:41:31.832Z,24.76
2022-10-16T10:46:46.473Z,24.36
2022-10-16T10:52:06.338Z,24.28
2022-10-16T10:57:16.580Z,23.88
2022-10-16T11:02:27.115Z,24.04
2022-10-16T11:07:32.493Z,23.93
2022-10-16T11:12:41.827Z,23.74
2022-10-16T11:18:07.005Z,23.69
2022-10-16T11:23:29.223Z,23.54
2022-10-16T11:28:35.675Z,23.49
2022-10-16T11:33:58.733Z,23.34
2022-10-16T11:39:26.979Z,23.48
2022-10-16T11:44:44.230Z,23.46
2022-10-16T11:49:47.320Z,23.37
2022-10-16T11:54:59.138Z,23.42
2022-10-16T12:00:07.073Z,23.38
2022-10-16T12:05:25.786Z,23.29
2022-10-16T12:10:29.878Z,23.27
2022-10-16T12:15:57.775Z,23.35
2022-10-16T12:21:05.559Z,23.40
2022-10-16T12:26:07.653Z,23.54
2022-10-16T12:31:13.430Z,23.52
2022-10-16T12:36:27.140Z,23.53
2022-10-16T12:41:34.431Z,23.53
2022-10-16T12:46:40.019Z,23.44
2022-10-16T12:51:42.883Z,23.71
2022-10-16T12:57:22.220Z,23.85
2022-10-16T13:03:07.715Z,23.99
2022-10-16T13:08:57.264Z,23.76
2022-10-16T13:14:17.314Z,23.93
2022-10-16T13:19:19.085Z,23.64
2022-10-16T13:24:26.821Z,23.92
2022-10-16T13:29:35.109Z,23.64
2022-10-16T13:34:49.657Z,23.60
2022-10-16T13:39:54.367Z,23.53
2022-10-16T13:44:57.689Z,23.47
2022-10-16T13:50:06.629Z,23.48
2022-10-16T13:55:14.022Z,23.58
2022-10-16T14:00:31.102Z,23.68
2022-10-16T14:05:33.409Z,23.72
2022-10-16T14:10:35.746Z,23.75
2022-10-16T14:15:38.064Z,24.03
2022-10-16T14:20:40.240Z,24.02
2022-10-16T14:25:42.174Z,24.05
2022-10-16T14:30:56.144Z,24.10
2022-10-16T14:36:13.769Z,23.98
2022-10-16T14:41:16.169Z,23.94
2022-10-16T14:51:27.541Z,23.88
2022-10-16T14:56:35.824Z,23.58
2022-10-16T15:01:37.728Z,23.75
2022-10-16T15:06:39.736Z,23.89
2022-10-16T15:11:42.810Z,24.07
2022-10-16T15:16:44.518Z,24.27
2022-10-16T15:21:46.460Z,23.96
2022-10-16T15:26:48.596Z,24.00
2022-10-16T15:31:50.409Z,23.84
2022-10-16T15:36:52.301Z,23.88
2022-10-16T15:41:54.490Z,23.76
2022-10-16T15:46:56.939Z,23.76
2022-10-16T15:51:58.833Z,23.81
2022-10-16T15:57:00.786Z,23.85
2022-10-16T16:02:02.577Z,23.82
2022-10-16T16:07:04.589Z,23.81
2022-10-16T16:12:06.697Z,23.78
2022-10-16T16:17:09.398Z,23.73
2022-10-16T16:22:13.320Z,23.66
2022-10-16T16:27:15.341Z,23.42
2022-10-16T16:32:17.185Z,23.35
2022-10-16T16:37:19.043Z,23.21
2022-10-16T16:42:20.909Z,23.11
2022-10-16T16:47:22.805Z,23.01
2022-10-16T16:52:24.837Z,22.91
2022-10-16T16:57:26.863Z,22.87
2022-10-16T17:02:28.802Z,22.81
2022-10-16T17:07:33.843Z,22.81
2022-10-16T17:12:37.647Z,22.57
2022-10-16T17:17:39.838Z,22.52
2022-10-16T17:22:41.746Z,22.50
2022-10-16T17:27:43.588Z,22.31
2022-10-16T17:32:45.363Z,22.24
2022-10-16T17:37:47.246Z,22.06
2022-10-16T17:42:49.141Z,21.98
2022-10-16T17:47:50.940Z,21.87
2022-10-16T17:52:52.930Z,21.76
2022-10-16T17:57:54.756Z,21.56
2022-10-16T18:02:56.909Z,21.60
2022-10-16T18:07:58.876Z,21.40
2022-10-16T18:13:01.780Z,21.27
2022-10-16T18:18:03.714Z,21.19
2022-10-16T18:23:05.721Z,21.24
2022-10-16T18:28:08.242Z,21.18
2022-10-16T18:33:10.159Z,21.07
2022-10-16T18:38:12.004Z,21.10
2022-10-16T18:43:14.004Z,20.96
2022-10-16T18:48:15.877Z,20.83
2022-10-16T18:53:17.985Z,20.74
2022-10-16T18:58:20.050Z,20.78
2022-10-16T19:03:21.915Z,20.57
2022-10-16T19:08:23.950Z,20.60
2022-10-16T19:13:25.779Z,20.49
2022-10-16T19:18:28.516Z,20.48
2022-10-16T19:23:30.473Z,20.34
2022-10-16T19:28:32.711Z,20.28
2022-10-16T19:33:35.131Z,20.36
2022-10-16T19:38:37.109Z,20.36
2022-10-16T19:43:39.083Z,20.37
2022-10-16T19:48:42.042Z,20.24
2022-10-16T19:53:45.213Z,20.32
2022-10-16T19:58:47.628Z,20.26
2022-10-16T20:03:50.452Z,20.36
2022-10-16T20:08:53.701Z,20.31
2022-10-16T20:13:55.984Z,20.20
2022-10-16T20:18:59.241Z,20.14
2022-10-16T20:24:04.522Z,20.25
2022-10-16T20:29:07.362Z,19.93
2022-10-16T20:34:11.642Z,20.06
2022-10-16T20:39:16.275Z,19.86
2022-10-16T20:44:18.238Z,19.91
2022-10-16T20:49:35.917Z,19.82
2022-10-16T20:54:44.886Z,19.90
2022-10-16T20:59:48.929Z,19.87
2022-10-16T21:04:50.964Z,19.76
2022-10-16T21:09:55.759Z,19.70
2022-10-16T21:15:13.852Z,19.75
2022-10-16T21:20:17.328Z,19.65
2022-10-16T21:25:19.259Z,19.69
2022-10-16T21:30:21.066Z,19.54
2022-10-16T21:35:23.036Z,19.54
2022-10-16T21:40:24.962Z,19.36
2022-10-16T21:45:26.957Z,19.20
2022-10-16T21:50:28.872Z,19.03
2022-10-16T21:55:30.752Z,19.12
2022-10-16T22:00:32.667Z,19.07
2022-10-16T22:05:57.340Z,19.12
2022-10-16T22:11:17.786Z,19.18
2022-10-16T22:16:23.652Z,19.16
2022-10-16T22:21:26.988Z,19.14
2022-10-16T22:26:29.032Z,19.16
2022-10-16T22:31:34.093Z,19.11
2022-10-16T22:36:38.549Z,18.99
2022-10-16T22:41:40.356Z,18.95
2022-10-16T22:46:42.379Z,19.01
2022-10-16T22:51:44.618Z,18.84
2022-10-16T22:56:46.531Z,18.94
2022-10-16T23:01:48.484Z,18.84
2022-10-16T23:06:50.392Z,18.69
2022-10-16T23:11:52.371Z,18.51
2022-10-16T23:16:54.141Z,18.46
2022-10-16T23:21:55.924Z,18.18
2022-10-16T23:26:57.774Z,18.39
2022-10-16T23:31:59.670Z,18.34
2022-10-16T23:37:03.856Z,18.33
2022-10-16T23:42:05.672Z,18.28
2022-10-16T23:47:07.638Z,18.48
2022-10-16T23:52:09.672Z,18.50
2022-10-16T23:57:11.786Z,18.62
